Lobo

Go HERE for most recent data if this page is not up to date.

Jump to table bottom
Date/Time Temp deg F RH % 24 Hr Snow (in) Snow Depth (in) H2O (in)
05/20 19:00 30.5 89 "NAN" 44.0 0.01
05/20 18:00 31.3 91 "NAN" 44.0 0.00
05/20 17:00 30.4 85 "NAN" 43.5 0.01
05/20 16:00 31.7 89 "NAN" 43.6 0.00
05/20 15:00 32.2 80 "NAN" 43.4 0.00
05/20 14:00 32.8 73 "NAN" 43.3 0.00
05/20 13:00 32.3 77 "NAN" 43.6 0.00
05/20 12:00 30.1 85 "NAN" 43.4 0.00
05/20 11:00 28.7 85 "NAN" 44.0 0.00
05/20 10:00 26.8 88 "NAN" 44.6 0.00
05/20 09:00 24.7 94 "NAN" 43.3 0.00
05/20 08:00 23.4 95 "NAN" 43.5 0.00
05/20 07:00 22.6 95 "NAN" 43.4 0.00
05/20 06:00 22.4 95 "NAN" 43.3 0.00
05/20 05:00 22.4 95 "NAN" 42.8 0.00
05/20 04:00 22.5 95 "NAN" 43.9 0.00
05/20 03:00 22.8 95 "NAN" 43.5 0.00
05/20 02:00 23.0 95 "NAN" 43.8 0.00
05/20 01:00 23.1 95 "NAN" 44.0 0.00
05/20 00:00 23.4 96 "NAN" 43.9 0.00
05/19 23:00 23.8 96 "NAN" 44.1 0.00
05/19 22:00 24.3 96 "NAN" 44.3 0.00
05/19 21:00 25.0 97 "NAN" 44.3 0.00
05/19 20:00 26.3 98 "NAN" 44.3 0.02
05/19 19:00 28.0 96 "NAN" 42.9 0.02
05/19 18:00 30.5 91 "NAN" 43.0 0.00
05/19 17:00 31.5 91 "NAN" 43.3 0.00
05/19 16:00 33.7 87 "NAN" 43.3 0.00
05/19 15:00 35.9 78 "NAN" 43.5 0.00
05/19 14:00 35.6 76 "NAN" 43.5 0.00
05/19 13:00 35.8 77 "NAN" 43.9 0.00
05/19 12:00 32.3 89 "NAN" 44.2 0.00
05/19 11:00 30.4 95 "NAN" 44.5 0.00
05/19 10:00 28.7 96 "NAN" 44.4 0.00
05/19 09:00 27.3 97 "NAN" 44.2 0.00
05/19 08:00 26.0 97 "NAN" 44.1 0.00
05/19 07:00 25.9 97 "NAN" 44.1 0.00
05/19 06:00 26.0 97 "NAN" 43.7 0.03
05/19 05:00 26.4 98 "NAN" 43.6 0.00
05/19 04:00 26.6 98 "NAN" 43.0 0.00
05/19 03:00 26.9 98 "NAN" 43.0 0.00
05/19 02:00 27.0 98 "NAN" 43.1 0.00
05/19 01:00 27.0 98 "NAN" 43.4 0.00
05/19 00:00 27.2 98 "NAN" 43.5 0.00
.